Aérodrome :
LOGIN :

S'inscrire | Disclaimer

   EN    FR    IT 

 










Légende :    VFR   VFR Marginal   IFR   IFR Intensif   IFR Très Intensif
Visi : 
Plafond : 
>= 8 km
>= 3000ft
5 à 8 km
1000 à 3000 ft
1500m à 5 km
500 à 1000 ft
800 à 1500m
200 à 500 ft
< 800m
< 200 ft
Symboles :   Orages  Brouillard  Fortes neiges  Fortes précipitations  Vent > 20 kt
SIGMETs :   Divers  Orages  Givrage  Turbulence  Onde Orograph.  Cendres Volcan.







- Altitude de l'aérodrome : 388 ft
- Code IATA : QYR
- Voir les cartes d'approche


LFQB - Troyes Barberey

DERNIER METAR :
  • 221230Z AUTO 02005KT 260V070 1900 HZ NSC 20/08 Q1021

METARs EXPIRÉS :
  • 221200Z AUTO 36006KT 330V040 CAVOK 20/07 Q1021
  • 221130Z AUTO 01004KT 290V050 5000 1900 HZ NSC 19/07 Q1021
  • 221100Z AUTO 02005KT 320V090 3900 HZ NSC 20/08 Q1021
  • 221030Z AUTO 36003KT 310V070 9999 FEW049 SCT056 19/09 Q1021
  • 221000Z AUTO VRB04KT //// // SCT043 BKN060 19/08 Q1021

TAF N/A
Pas de NOTAMs connus pour ce terrain.



MET'MAP, la Météo Aéronautique d'un coup d'oeil ! - Copyright ORBIFLY Décembre 2007 - Disclaimer

ORBIFLY MET'MAP TEAM :

Programmation & Développement : Alexandra Zaïnal
Conception & Développement : Baudouin d'Aumeries
Co-Programmation & Développement : Marc-Olivier Méhu
Soutien technique & logistique : Manuel Goepfert

Contact : metmap@orbifly.com




SOURCES & CREDITS :

   NOAA